Time;durP1;ratioP1;P1;durP2;ratioP2;P2;SDS_P1;SDS_P2;PMS_P1;PMS_P2;Temp;Humidity;BMP_temperature;BMP_pressure;BME280_temperature;BME280_humidity;BME280_pressure;Samples;Min_cycle;Max_cycle;Signal;HPM_P1;HPM_P2
2022/07/07 00:01:59;;;;;;;1.85;0.70;;;;;;;32.05;24.78;98491.47;5093911;28;20093;-77
2022/07/07 00:04:25;;;;;;;0.68;0.68;;;;;;;32.04;24.62;98481.41;5094106;28;20074;-77
2022/07/07 00:06:51;;;;;;;3.50;0.80;;;;;;;31.98;24.30;98484.09;5094081;28;20089;-77
2022/07/07 00:09:17;;;;;;;0.70;0.70;;;;;;;31.63;25.01;98485.72;5094008;28;20062;-77
2022/07/07 00:11:44;;;;;;;0.90;0.70;;;;;;;31.45;25.04;98490.66;5094058;28;20367;-77
2022/07/07 00:14:10;;;;;;;1.50;0.70;;;;;;;31.54;24.94;98484.97;5093829;28;20036;-77
2022/07/07 00:16:37;;;;;;;0.50;0.50;;;;;;;31.70;24.71;98484.59;5089489;28;20060;-77
2022/07/07 00:19:04;;;;;;;1.55;0.77;;;;;;;31.94;24.18;98483.44;5073950;28;20055;-77
2022/07/07 00:21:31;;;;;;;0.65;0.65;;;;;;;32.11;23.72;98483.09;5089116;28;20358;-77
2022/07/07 00:23:57;;;;;;;0.50;0.50;;;;;;;32.16;23.93;98482.44;5073437;28;20760;-77
2022/07/07 00:26:23;;;;;;;0.70;0.70;;;;;;;32.17;23.53;98479.13;5079185;28;20116;-77
2022/07/07 00:28:50;;;;;;;0.82;0.68;;;;;;;31.81;23.68;98482.06;5079429;28;20165;-77
2022/07/07 00:31:16;;;;;;;0.80;0.80;;;;;;;31.48;24.17;98470.63;5073211;28;20028;-77
2022/07/07 00:33:43;;;;;;;0.65;0.65;;;;;;;31.45;24.26;98465.91;5077779;28;20468;-77
2022/07/07 00:36:09;;;;;;;0.60;0.60;;;;;;;31.38;24.09;98471.88;5093960;28;20028;-77
2022/07/07 00:38:36;;;;;;;0.40;0.40;;;;;;;31.27;24.26;98463.06;5093552;28;20143;-77
2022/07/07 00:41:02;;;;;;;1.23;0.80;;;;;;;30.53;25.23;98464.22;5093561;28;20032;-77
2022/07/07 00:43:35;;;;;;;0.60;0.60;;;;;;;30.18;25.79;98467.72;5081053;28;20062;-77
2022/07/07 00:46:03;;;;;;;1.00;0.90;;;;;;;30.31;25.78;98469.19;5072849;28;20427;-77
2022/07/07 00:48:29;;;;;;;1.55;0.93;;;;;;;30.75;24.71;98461.28;5073218;28;20033;-76
2022/07/07 00:50:55;;;;;;;1.35;0.80;;;;;;;30.82;24.28;98469.47;5079433;28;20099;-77
2022/07/07 00:53:21;;;;;;;0.70;0.70;;;;;;;30.78;24.41;98468.84;5088388;28;20039;-77
2022/07/07 00:55:47;;;;;;;0.70;0.70;;;;;;;30.75;24.48;98458.44;5073162;28;20036;-77
2022/07/07 00:58:13;;;;;;;2.47;0.77;;;;;;;30.87;24.42;98468.84;5072951;28;20076;-77
2022/07/07 01:00:41;;;;;;;0.80;0.60;;;;;;;31.07;24.14;98468.41;5080155;28;20028;-77
2022/07/07 01:03:09;;;;;;;0.80;0.63;;;;;;;31.12;24.41;98465.75;5093234;28;20032;-77
2022/07/07 01:05:36;;;;;;;0.50;0.50;;;;;;;31.20;24.05;98464.13;5093242;28;20042;-77
2022/07/07 01:08:04;;;;;;;1.55;0.50;;;;;;;31.25;23.85;98465.59;5093728;28;20028;-77
2022/07/07 01:10:31;;;;;;;0.40;0.40;;;;;;;31.42;23.73;98466.81;5097483;28;20127;-77
2022/07/07 01:13:02;;;;;;;0.47;0.47;;;;;;;31.39;23.18;98470.63;5097474;28;20059;-77
2022/07/07 01:15:28;;;;;;;0.45;0.45;;;;;;;31.04;23.38;98466.53;5097439;28;20024;-76
2022/07/07 01:17:55;;;;;;;0.80;0.80;;;;;;;30.65;24.27;98468.19;5097208;28;20032;-76
2022/07/07 01:20:22;;;;;;;0.55;0.40;;;;;;;30.69;24.53;98466.00;5097410;28;20055;-77
2022/07/07 01:22:51;;;;;;;0.73;0.73;;;;;;;30.66;24.29;98467.72;5077821;28;20043;-77
2022/07/07 01:25:17;;;;;;;1.17;0.60;;;;;;;30.86;23.99;98466.47;5082414;28;20036;-76
2022/07/07 01:27:44;;;;;;;0.40;0.40;;;;;;;30.94;24.31;98462.91;5112540;28;20486;-77
2022/07/07 01:30:10;;;;;;;1.40;0.60;;;;;;;31.07;23.72;98468.41;5097129;28;20058;-77
2022/07/07 01:32:37;;;;;;;0.50;0.50;;;;;;;31.17;23.54;98470.00;5096952;28;20028;-77
2022/07/07 01:35:04;;;;;;;0.85;0.70;;;;;;;31.23;23.27;98459.56;5097240;28;20038;-77
2022/07/07 01:37:32;;;;;;;0.40;0.40;;;;;;;31.27;23.46;98460.97;5096938;28;20468;-77
2022/07/07 01:39:59;;;;;;;1.50;0.73;;;;;;;31.07;23.51;98460.69;5096828;28;20024;-77
2022/07/07 01:42:25;;;;;;;0.57;0.57;;;;;;;30.71;24.56;98464.25;5094842;28;20036;-77
2022/07/07 01:44:51;;;;;;;0.50;0.50;;;;;;;30.62;24.32;98460.63;5096811;28;20460;-77
2022/07/07 01:47:21;;;;;;;0.57;0.57;;;;;;;30.76;23.74;98462.84;5096713;28;20028;-77
2022/07/07 01:49:47;;;;;;;0.73;0.60;;;;;;;30.75;24.33;98461.28;5096721;28;20107;-77
2022/07/07 01:52:13;;;;;;;0.40;0.40;;;;;;;30.85;24.18;98467.75;5090936;28;20020;-76
2022/07/07 01:54:40;;;;;;;0.50;0.50;;;;;;;31.01;24.09;98468.28;5076302;28;20037;-77
2022/07/07 01:57:08;;;;;;;1.13;0.40;;;;;;;30.82;24.42;98466.66;5075999;28;20024;-77
2022/07/07 01:59:35;;;;;;;0.55;0.55;;;;;;;30.88;24.18;98467.63;5080282;28;20431;-77
2022/07/07 02:02:01;;;;;;;0.50;0.50;;;;;;;31.03;23.98;98456.44;5091216;28;20372;-77
2022/07/07 02:04:27;;;;;;;2.85;0.50;;;;;;;31.08;24.05;98467.16;5096429;28;20040;-77
2022/07/07 02:06:54;;;;;;;0.70;0.70;;;;;;;31.07;24.30;98465.56;5086325;28;20020;-77
2022/07/07 02:09:20;;;;;;;0.77;0.70;;;;;;;31.16;23.83;98457.06;5075985;28;20040;-77
2022/07/07 02:11:46;;;;;;;0.60;0.60;;;;;;;30.90;23.62;98458.66;5076208;28;20431;-77
2022/07/07 02:14:12;;;;;;;0.80;0.63;;;;;;;30.63;24.14;98459.38;5075990;28;20040;-77
2022/07/07 02:16:38;;;;;;;0.70;0.68;;;;;;;30.74;24.42;98457.66;5077100;28;20126;-76
2022/07/07 02:19:07;;;;;;;0.90;0.65;;;;;;;30.78;23.93;98460.34;5075409;28;20117;-77
2022/07/07 02:21:34;;;;;;;0.65;0.60;;;;;;;30.62;24.66;98460.63;5075779;28;20052;-77
2022/07/07 02:24:00;;;;;;;0.73;0.70;;;;;;;30.66;24.61;98455.59;5075807;28;20032;-77
2022/07/07 02:26:27;;;;;;;0.65;0.65;;;;;;;30.90;24.21;98456.59;5075570;28;20166;-76
2022/07/07 02:28:53;;;;;;;0.50;0.50;;;;;;;31.14;23.94;98454.69;5075771;28;20031;-76
2022/07/07 02:31:19;;;;;;;0.52;0.52;;;;;;;30.94;24.06;98447.94;5091361;28;20042;-76
2022/07/07 02:33:46;;;;;;;3.15;0.60;;;;;;;30.91;24.43;98446.81;5076617;28;20040;-77
2022/07/07 02:36:12;;;;;;;0.75;0.40;;;;;;;31.17;23.67;98433.91;5076117;28;20346;-76
2022/07/07 02:38:39;;;;;;;0.45;0.45;;;;;;;31.35;23.51;98435.91;5075614;28;20111;-76
2022/07/07 02:41:06;;;;;;;1.05;0.50;;;;;;;31.46;23.47;98429.78;5075148;28;20028;-76
2022/07/07 02:43:33;;;;;;;1.27;0.73;;;;;;;31.38;23.11;98444.28;5075530;28;20119;-76
2022/07/07 02:46:00;;;;;;;0.40;0.40;;;;;;;31.03;24.06;98442.25;5075429;28;20586;-76
2022/07/07 02:48:26;;;;;;;0.85;0.60;;;;;;;31.14;23.75;98443.34;5075285;28;20124;-76
2022/07/07 02:50:53;;;;;;;0.65;0.65;;;;;;;31.27;23.73;98448.88;5083611;28;20031;-76
2022/07/07 02:53:20;;;;;;;2.33;0.60;;;;;;;31.21;24.12;98445.06;5075239;28;20032;-76
2022/07/07 02:55:47;;;;;;;0.55;0.55;;;;;;;31.38;24.11;98444.28;5075075;28;20028;-76
2022/07/07 02:58:19;;;;;;;1.25;0.57;;;;;;;31.51;23.71;98443.34;5075014;28;20052;-77
2022/07/07 03:00:47;;;;;;;1.85;0.77;;;;;;;31.41;24.01;98442.53;5075137;28;20063;-76
2022/07/07 03:03:14;;;;;;;2.58;0.65;;;;;;;31.04;24.33;98447.44;5074974;28;20392;-77
2022/07/07 03:05:40;;;;;;;1.13;0.75;;;;;;;30.97;24.76;98447.75;5074989;28;20036;-77
2022/07/07 03:08:06;;;;;;;0.57;0.50;;;;;;;31.03;24.35;98448.72;5076341;28;20032;-77
2022/07/07 03:10:33;;;;;;;1.55;0.50;;;;;;;30.67;25.05;98438.09;5074692;28;20035;-77
2022/07/07 03:12:59;;;;;;;0.60;0.60;;;;;;;30.21;25.48;98436.41;5074815;28;20029;-77
2022/07/07 03:15:25;;;;;;;0.80;0.50;;;;;;;29.91;25.57;98432.38;5074875;28;20024;-77
2022/07/07 03:17:52;;;;;;;0.50;0.50;;;;;;;29.79;25.89;98423.97;5074880;28;20090;-77
2022/07/07 03:20:19;;;;;;;0.60;0.60;;;;;;;29.72;25.92;98418.56;5080378;28;20438;-77
2022/07/07 03:22:46;;;;;;;0.63;0.50;;;;;;;29.67;25.94;98410.69;5094932;28;20043;-77
2022/07/07 03:25:12;;;;;;;1.42;1.35;;;;;;;29.18;27.17;98417.00;5076252;28;20103;-77
2022/07/07 03:27:38;;;;;;;1.27;0.52;;;;;;;29.02;27.38;98422.81;5086664;28;20036;-76
2022/07/07 03:30:07;;;;;;;2.53;0.63;;;;;;;29.45;27.34;98422.06;5074580;28;20074;-77
2022/07/07 03:32:33;;;;;;;0.90;0.90;;;;;;;30.23;26.15;98419.72;5073120;28;20036;-77
2022/07/07 03:35:00;;;;;;;0.70;0.70;;;;;;;30.92;25.38;98430.59;5074445;28;20481;-77
2022/07/07 03:37:26;;;;;;;0.60;0.60;;;;;;;31.09;24.85;98443.19;5074416;28;20024;-77
2022/07/07 03:39:53;;;;;;;3.15;1.23;;;;;;;30.31;26.62;98454.22;5074253;28;20029;-76
2022/07/07 03:42:19;;;;;;;1.35;1.10;;;;;;;30.67;26.75;98454.31;5092260;28;20392;-77
2022/07/07 03:44:45;;;;;;;1.13;0.73;;;;;;;31.62;26.18;98454.97;5094360;28;20035;-77
2022/07/07 03:47:12;;;;;;;2.67;0.80;;;;;;;32.44;25.32;98453.41;5094792;28;20024;-77
2022/07/07 03:49:38;;;;;;;0.80;0.80;;;;;;;33.03;23.90;98457.31;5094543;28;20084;-77
2022/07/07 03:52:05;;;;;;;0.98;0.82;;;;;;;33.02;23.41;98447.22;5081820;28;20443;-77
2022/07/07 03:54:31;;;;;;;3.30;1.13;;;;;;;33.07;23.17;98445.75;5073770;28;20074;-77
2022/07/07 03:56:57;;;;;;;1.40;0.90;;;;;;;32.85;24.23;98443.22;5074281;28;20122;-77
2022/07/07 03:59:23;;;;;;;0.75;0.75;;;;;;;32.75;25.06;98444.53;5074954;28;20049;-77
2022/07/07 04:01:49;;;;;;;1.95;0.80;;;;;;;32.82;24.60;98437.69;5073937;28;20158;-77
2022/07/07 04:04:16;;;;;;;0.80;0.80;;;;;;;32.92;24.83;98445.69;5073639;28;20085;-77
2022/07/07 04:06:42;;;;;;;2.75;1.20;;;;;;;33.05;24.87;98437.69;5073900;28;20400;-77
2022/07/07 04:09:08;;;;;;;1.00;1.00;;;;;;;32.94;25.21;98434.59;5073473;28;20477;-77
2022/07/07 04:11:35;;;;;;;0.80;0.80;;;;;;;32.72;25.97;98437.75;5078439;28;20028;-77
2022/07/07 04:14:02;;;;;;;2.25;0.90;;;;;;;32.47;26.73;98431.75;5083559;28;20036;-77
2022/07/07 04:16:29;;;;;;;0.95;0.95;;;;;;;32.45;26.18;98432.22;5092895;28;20032;-77
2022/07/07 04:18:55;;;;;;;1.80;0.90;;;;;;;32.37;26.80;98435.94;5086445;28;20036;-77
2022/07/07 04:21:22;;;;;;;2.17;0.93;;;;;;;32.63;26.40;98434.19;5073645;28;20073;-77
2022/07/07 04:23:48;;;;;;;1.08;0.85;;;;;;;33.11;25.42;98434.97;5079907;28;20468;-77
2022/07/07 04:26:14;;;;;;;2.38;0.70;;;;;;;33.62;25.39;98432.59;5074802;28;20082;-77
2022/07/07 04:28:40;;;;;;;0.70;0.60;;;;;;;34.19;25.18;98435.88;5073437;28;20032;-77
2022/07/07 04:31:06;;;;;;;0.50;0.50;;;;;;;34.55;24.54;98426.84;5084868;28;20042;-77
2022/07/07 04:33:32;;;;;;;0.63;0.60;;;;;;;34.73;23.71;98432.25;5088490;28;20035;-77
2022/07/07 04:35:58;;;;;;;1.88;0.60;;;;;;;34.78;23.47;98430.75;5073453;28;20032;-77
2022/07/07 04:38:25;;;;;;;0.70;0.70;;;;;;;34.89;23.42;98427.28;5081396;28;20066;-77
2022/07/07 04:40:51;;;;;;;0.95;0.68;;;;;;;35.07;23.15;98422.06;5093523;28;20085;-77
2022/07/07 04:43:17;;;;;;;0.40;0.40;;;;;;;35.30;23.38;98428.81;5093169;28;20443;-77
2022/07/07 04:45:43;;;;;;;0.65;0.60;;;;;;;35.32;23.21;98418.44;5093656;28;20032;-77
2022/07/07 04:48:09;;;;;;;0.63;0.50;;;;;;;35.41;23.44;98424.00;5092580;28;20028;-77
2022/07/07 04:50:35;;;;;;;0.55;0.50;;;;;;;35.57;23.05;98428.31;5084116;28;20472;-77
2022/07/07 04:53:01;;;;;;;0.43;0.40;;;;;;;35.68;22.90;98421.94;5073140;28;20029;-77
2022/07/07 04:55:27;;;;;;;0.50;0.40;;;;;;;35.72;23.85;98428.19;5073124;28;20036;-77
2022/07/07 04:57:53;;;;;;;0.30;0.30;;;;;;;35.94;22.93;98428.41;5073310;28;20413;-78
2022/07/07 05:00:19;;;;;;;0.40;0.40;;;;;;;35.33;24.08;98424.94;5077224;28;20040;-77
2022/07/07 05:02:45;;;;;;;0.40;0.40;;;;;;;35.67;24.41;98428.94;5086232;28;20391;-77
2022/07/07 05:05:11;;;;;;;0.63;0.32;;;;;;;35.83;23.35;98422.56;5091635;28;20036;-77
2022/07/07 05:07:38;;;;;;;0.40;0.40;;;;;;;35.79;23.90;98428.53;5092643;28;20028;-77
2022/07/07 05:10:04;;;;;;;0.95;0.40;;;;;;;36.03;22.27;98422.53;5093385;28;20047;-77
2022/07/07 05:12:30;;;;;;;0.47;0.47;;;;;;;36.13;23.19;98429.59;5093056;28;20068;-78
2022/07/07 05:14:56;;;;;;;0.40;0.35;;;;;;;36.34;21.80;98433.13;5093149;28;20028;-78
2022/07/07 05:17:23;;;;;;;0.35;0.35;;;;;;;36.41;23.17;98424.84;5078771;28;20040;-77
2022/07/07 05:19:49;;;;;;;0.73;0.65;;;;;;;36.55;21.91;98420.28;5072756;28;20444;-77
2022/07/07 05:22:15;;;;;;;0.32;0.32;;;;;;;36.69;22.94;98422.16;5073561;28;20044;-78
2022/07/07 05:24:41;;;;;;;0.55;0.30;;;;;;;36.77;22.87;98425.31;5065700;28;20029;-78
2022/07/07 05:27:07;;;;;;;0.35;0.35;;;;;;;36.85;21.52;98421.47;5073051;28;20076;-78
2022/07/07 05:29:33;;;;;;;0.30;0.30;;;;;;;36.71;23.16;98422.44;5072801;28;20082;-78
2022/07/07 05:31:59;;;;;;;0.98;0.30;;;;;;;36.99;22.74;98423.38;5078114;28;20024;-78
2022/07/07 05:34:25;;;;;;;0.75;0.30;;;;;;;36.64;23.57;98422.94;5092577;28;20039;-77
2022/07/07 05:36:51;;;;;;;0.50;0.30;;;;;;;36.27;23.71;98416.44;5092890;28;20032;-78
2022/07/07 05:39:17;;;;;;;0.65;0.30;;;;;;;36.42;23.94;98417.84;5091458;28;20357;-78
2022/07/07 05:41:43;;;;;;;0.25;0.22;;;;;;;36.78;23.54;98409.72;5072656;28;20032;-78
2022/07/07 05:44:10;;;;;;;0.95;0.32;;;;;;;36.60;22.97;98413.78;5072703;28;20099;-77
2022/07/07 05:46:36;;;;;;;0.30;0.30;;;;;;;36.81;23.18;98403.72;5072843;28;20396;-78
2022/07/07 05:49:03;;;;;;;0.63;0.38;;;;;;;36.93;22.70;98408.25;5072375;28;20035;-78
2022/07/07 05:51:29;;;;;;;1.35;0.30;;;;;;;37.21;23.45;98409.09;5072620;28;20492;-78
2022/07/07 05:53:55;;;;;;;0.40;0.40;;;;;;;37.42;23.25;98409.69;5072966;28;20475;-78
2022/07/07 05:56:22;;;;;;;0.68;0.38;;;;;;;37.34;22.60;98411.50;5077954;28;20167;-78
2022/07/07 05:58:48;;;;;;;0.30;0.30;;;;;;;37.46;22.95;98395.88;5096363;28;20047;-78
2022/07/07 06:01:14;;;;;;;0.30;0.30;;;;;;;37.66;23.16;98410.00;5096583;28;20031;-78
2022/07/07 06:03:40;;;;;;;0.68;0.40;;;;;;;37.74;22.23;98408.16;5096257;28;20468;-78
2022/07/07 06:06:06;;;;;;;0.30;0.30;;;;;;;37.72;22.27;98407.91;5076321;28;20473;-78
2022/07/07 06:08:32;;;;;;;0.45;0.45;;;;;;;37.64;22.36;98403.22;5075856;28;20512;-78
2022/07/07 06:10:59;;;;;;;0.43;0.40;;;;;;;37.37;22.38;98414.13;5076061;28;20519;-78
2022/07/07 06:13:25;;;;;;;0.60;0.50;;;;;;;37.34;22.79;98409.38;5059947;28;20032;-78
2022/07/07 06:15:51;;;;;;;0.30;0.30;;;;;;;37.16;21.81;98406.22;5077957;28;20028;-78
2022/07/07 06:18:17;;;;;;;0.47;0.47;;;;;;;37.05;21.02;98409.84;5095967;28;20028;-78
2022/07/07 06:20:43;;;;;;;0.40;0.40;;;;;;;37.09;21.85;98407.50;5096087;28;20484;-78
2022/07/07 06:23:10;;;;;;;1.15;0.30;;;;;;;37.49;21.66;98400.59;5096210;28;20032;-78
2022/07/07 06:25:36;;;;;;;0.65;0.40;;;;;;;37.65;21.40;98393.28;5096055;28;20020;-78
2022/07/07 06:28:02;;;;;;;0.50;0.50;;;;;;;37.51;20.79;98391.50;5091816;28;20119;-78
2022/07/07 06:30:29;;;;;;;1.38;0.50;;;;;;;37.51;20.50;98388.63;5087546;28;20365;-78
2022/07/07 06:32:55;;;;;;;0.65;0.65;;;;;;;37.45;21.44;98382.88;5095641;28;20035;-78
2022/07/07 06:35:22;;;;;;;0.50;0.50;;;;;;;37.57;21.05;98383.66;5082932;28;20036;-78
2022/07/07 06:37:48;;;;;;;0.50;0.50;;;;;;;37.51;20.51;98380.78;5075815;28;20392;-78
2022/07/07 06:40:15;;;;;;;3.25;0.77;;;;;;;37.56;20.95;98384.97;5075525;28;20028;-78
2022/07/07 06:42:41;;;;;;;0.50;0.50;;;;;;;37.60;21.49;98388.38;5075515;28;20634;-78
2022/07/07 06:45:07;;;;;;;0.50;0.50;;;;;;;37.82;21.34;98394.91;5075379;28;20081;-78
2022/07/07 06:47:34;;;;;;;0.60;0.60;;;;;;;38.05;20.23;98390.72;5078542;28;20036;-78
2022/07/07 06:50:00;;;;;;;2.88;0.90;;;;;;;38.20;19.63;98383.91;5095804;28;20055;-78
2022/07/07 06:52:26;;;;;;;1.60;0.70;;;;;;;38.32;20.60;98392.00;5095475;28;20025;-78
2022/07/07 06:54:52;;;;;;;0.75;0.75;;;;;;;38.15;19.29;98384.69;5077212;28;20158;-78
2022/07/07 06:57:18;;;;;;;2.05;0.85;;;;;;;38.00;19.98;98380.03;5095851;28;20032;-78
2022/07/07 06:59:44;;;;;;;2.15;0.70;;;;;;;38.07;20.69;98393.03;5095348;28;20488;-79
2022/07/07 07:02:10;;;;;;;1.33;0.57;;;;;;;37.88;20.33;98378.47;5095084;28;20066;-79
2022/07/07 07:04:37;;;;;;;0.70;0.70;;;;;;;37.71;20.68;98380.56;5079875;28;20044;-79
2022/07/07 07:07:04;;;;;;;1.85;0.70;;;;;;;37.74;20.70;98379.47;5074873;28;20025;-79
2022/07/07 07:09:30;;;;;;;0.93;0.80;;;;;;;37.35;20.56;98379.44;5074880;28;20025;-79
2022/07/07 07:11:57;;;;;;;0.70;0.70;;;;;;;37.58;19.65;98373.75;5074980;28;20037;-79
2022/07/07 07:14:23;;;;;;;3.50;0.82;;;;;;;36.93;20.81;98376.75;5074809;28;20047;-79
2022/07/07 07:16:49;;;;;;;1.05;0.63;;;;;;;37.12;20.72;98377.84;5074602;28;20123;-79
2022/07/07 07:19:15;;;;;;;2.28;1.13;;;;;;;37.22;21.32;98381.25;5074658;28;20024;-79
2022/07/07 07:21:41;;;;;;;0.95;0.70;;;;;;;36.87;19.90;98375.16;5079300;28;20036;-79
2022/07/07 07:24:07;;;;;;;0.93;0.82;;;;;;;37.07;20.78;98384.34;5076881;28;20024;-79
2022/07/07 07:26:34;;;;;;;0.70;0.70;;;;;;;36.68;22.32;98384.19;5090872;28;20115;-79
2022/07/07 07:29:00;;;;;;;0.60;0.60;;;;;;;37.20;21.39;98376.03;5074685;28;20048;-79
2022/07/07 07:31:26;;;;;;;1.05;0.68;;;;;;;37.76;22.05;98368.28;5074512;28;20446;-79
2022/07/07 07:33:52;;;;;;;2.03;0.70;;;;;;;37.15;20.55;98373.97;5074373;28;20044;-79
2022/07/07 07:36:18;;;;;;;1.00;0.88;;;;;;;35.76;24.25;98366.66;5074701;28;20028;-77
2022/07/07 07:38:44;;;;;;;1.05;0.70;;;;;;;36.42;22.57;98369.22;5079069;28;20035;-76
2022/07/07 07:41:11;;;;;;;0.90;0.65;;;;;;;36.58;21.36;98379.19;5094777;28;20408;-77
2022/07/07 07:43:38;;;;;;;4.00;0.70;;;;;;;37.15;20.53;98367.44;5094498;28;20042;-79
2022/07/07 07:46:04;;;;;;;0.52;0.52;;;;;;;37.58;20.42;98354.47;5094167;28;20587;-79
2022/07/07 07:48:30;;;;;;;0.63;0.60;;;;;;;38.03;19.08;98355.25;5094791;28;20052;-77
2022/07/07 07:50:57;;;;;;;0.70;0.60;;;;;;;38.14;19.18;98354.47;5094431;28;20472;-77
2022/07/07 07:53:23;;;;;;;0.40;0.40;;;;;;;38.06;19.82;98357.09;5094453;28;20028;-77
2022/07/07 07:55:50;;;;;;;2.15;0.60;;;;;;;38.31;20.24;98355.22;5087845;28;20032;-78
2022/07/07 07:58:16;;;;;;;1.85;0.57;;;;;;;38.32;18.57;98368.25;5074068;28;20098;-77
2022/07/07 08:00:42;;;;;;;0.50;0.50;;;;;;;38.31;19.91;98360.94;5074692;28;20032;-77
2022/07/07 08:03:08;;;;;;;1.17;0.55;;;;;;;38.29;19.27;98361.50;5085973;28;20114;-77
2022/07/07 08:05:35;;;;;;;0.52;0.30;;;;;;;38.23;19.47;98357.81;5094151;28;20036;-77
2022/07/07 08:08:01;;;;;;;0.60;0.60;;;;;;;38.58;18.88;98360.09;5078274;28;20025;-77
2022/07/07 08:10:27;;;;;;;0.60;0.60;;;;;;;38.40;19.03;98352.06;5073830;28;20032;-77
2022/07/07 08:12:53;;;;;;;0.50;0.50;;;;;;;38.54;18.94;98354.63;5074777;28;20481;-77
2022/07/07 08:15:19;;;;;;;0.63;0.60;;;;;;;38.41;18.72;98357.28;5073459;28;20384;-77
2022/07/07 08:17:48;;;;;;;0.60;0.60;;;;;;;38.54;19.77;98354.63;5073289;28;20366;-77
2022/07/07 08:20:15;;;;;;;0.38;0.38;;;;;;;38.58;19.39;98352.25;5073596;28;20052;-77
2022/07/07 08:22:41;;;;;;;0.65;0.30;;;;;;;38.89;19.39;98351.09;5073489;28;20489;-77
2022/07/07 08:25:07;;;;;;;2.58;0.63;;;;;;;39.13;19.21;98351.22;5073547;28;20497;-77
2022/07/07 08:27:33;;;;;;;0.50;0.50;;;;;;;39.18;19.13;98359.06;5073784;28;20476;-77
2022/07/07 08:30:00;;;;;;;0.88;0.60;;;;;;;37.57;19.76;98352.94;5080324;28;20476;-77
2022/07/07 08:32:26;;;;;;;1.17;0.63;;;;;;;37.59;18.93;98352.41;5093932;28;20115;-77
2022/07/07 08:34:53;;;;;;;0.52;0.50;;;;;;;37.46;19.76;98358.63;5093543;28;20088;-77
2022/07/07 08:37:19;;;;;;;0.70;0.70;;;;;;;37.90;19.69;98355.03;5093741;28;20036;-78
2022/07/07 08:39:45;;;;;;;0.70;0.60;;;;;;;37.57;19.49;98346.41;5093424;28;20028;-77
2022/07/07 08:42:12;;;;;;;1.17;0.52;;;;;;;38.00;18.56;98351.34;5093591;28;20380;-78
2022/07/07 08:44:38;;;;;;;0.50;0.50;;;;;;;38.53;19.40;98341.56;5093150;28;20403;-78
2022/07/07 08:47:04;;;;;;;1.17;0.50;;;;;;;38.60;19.13;98343.88;5085345;28;20035;-77
2022/07/07 08:49:31;;;;;;;1.38;0.50;;;;;;;38.09;17.55;98344.53;5073233;28;20057;-77
2022/07/07 08:51:57;;;;;;;1.90;0.50;;;;;;;38.45;19.47;98343.44;5073246;28;20086;-78
2022/07/07 08:54:26;;;;;;;1.25;0.60;;;;;;;37.62;20.39;98339.91;5073170;28;20442;-78
2022/07/07 08:56:53;;;;;;;1.25;0.55;;;;;;;38.00;20.83;98339.09;5073438;28;20048;-78
2022/07/07 08:59:19;;;;;;;0.52;0.52;;;;;;;38.72;18.93;98326.66;5072736;28;20493;-78
2022/07/07 09:02:00;;;;;;;1.55;0.75;;;;;;;38.01;18.00;98327.13;5086198;28;20028;-77
2022/07/07 09:04:26;;;;;;;;;;;;;;;37.49;17.61;98323.22;5082346;28;20036;-78
2022/07/07 09:07:04;;;;;;;1.45;0.70;;;;;;;37.67;18.89;98328.41;5072835;28;19916;-78
2022/07/07 09:09:36;;;;;;;1.60;0.68;;;;;;;35.94;21.88;98336.94;5078576;28;20028;-78
2022/07/07 09:12:03;;;;;;;0.40;0.40;;;;;;;36.44;20.83;98340.88;5087325;28;20032;-78
2022/07/07 09:14:44;;;;;;;0.60;0.60;;;;;;;36.70;21.59;98330.06;5089535;28;20033;-78
2022/07/07 09:17:31;;;;;;;0.70;0.70;;;;;;;35.68;19.66;98328.44;5055775;28;20037;-78
2022/07/07 09:20:05;;;;;;;0.60;0.60;;;;;;;36.15;21.24;98338.38;5071733;28;20029;-78
2022/07/07 09:23:01;;;;;;;0.40;0.40;;;;;;;36.64;20.20;98337.09;5073556;28;20426;-78
2022/07/07 09:25:27;;;;;;;0.52;0.52;;;;;;;36.61;19.07;98338.91;5064246;28;20043;-78
2022/07/07 09:28:07;;;;;;;0.70;0.70;;;;;;;36.44;20.22;98334.34;5078518;28;20042;-78
2022/07/07 09:30:45;;;;;;;0.60;0.60;;;;;;;36.49;20.36;98340.13;5088533;28;20040;-78
2022/07/07 09:33:22;;;;;;;0.80;0.60;;;;;;;36.04;21.90;98329.72;5097136;28;20085;-78
2022/07/07 09:38:37;;;;;;;0.70;0.70;;;;;;;36.64;19.85;98331.34;5084541;28;20519;-78
2022/07/07 09:41:10;;;;;;;1.02;0.60;;;;;;;37.02;20.77;98336.44;5076701;28;20028;-78
2022/07/07 09:43:53;;;;;;;2.08;0.50;;;;;;;37.30;19.34;98328.66;5076611;28;20037;-78
2022/07/07 09:46:26;;;;;;;0.50;0.50;;;;;;;36.62;19.94;98337.59;5058707;28;20471;-78
2022/07/07 09:48:55;;;;;;;0.60;0.60;;;;;;;36.48;19.27;98329.22;5076548;28;20055;-78
2022/07/07 09:51:27;;;;;;;0.60;0.60;;;;;;;36.53;19.96;98328.44;5076441;28;20036;-78
2022/07/07 09:53:56;;;;;;;1.08;0.60;;;;;;;36.62;21.07;98331.06;5076279;28;20035;-78
2022/07/07 09:56:42;;;;;;;0.90;0.60;;;;;;;37.30;21.08;98325.00;5094612;28;20082;-78
2022/07/07 09:59:13;;;;;;;0.60;0.60;;;;;;;36.11;21.70;98323.53;5094146;28;20052;-78
2022/07/07 10:01:43;;;;;;;3.42;1.17;;;;;;;36.85;20.19;98317.63;5076323;28;20040;-78
2022/07/07 10:04:13;;;;;;;0.95;0.70;;;;;;;36.33;21.57;98320.78;5076061;28;20020;-78
2022/07/07 10:06:41;;;;;;;0.70;0.68;;;;;;;37.08;19.91;98307.81;5075952;28;20389;-78
2022/07/07 10:09:19;;;;;;;0.63;0.50;;;;;;;37.12;20.20;98311.19;5076214;28;20048;-78
2022/07/07 10:11:47;;;;;;;1.50;0.80;;;;;;;37.25;19.48;98315.09;5081152;28;20025;-78
2022/07/07 10:14:19;;;;;;;1.15;0.70;;;;;;;36.43;24.33;98318.50;5096283;28;20040;-78
2022/07/07 10:16:49;;;;;;;0.73;0.73;;;;;;;36.82;19.74;98316.59;5096189;28;20541;-78
2022/07/07 10:19:18;;;;;;;0.95;0.73;;;;;;;36.46;22.12;98317.47;5112027;28;20024;-78
2022/07/07 10:21:52;;;;;;;0.85;0.85;;;;;;;37.05;18.59;98320.28;5096137;28;20060;-78
2022/07/07 10:24:21;;;;;;;0.65;0.65;;;;;;;37.73;18.15;98316.97;5095897;28;20059;-78
2022/07/07 10:26:51;;;;;;;1.85;0.60;;;;;;;38.41;18.94;98316.31;5096275;28;20044;-78
2022/07/07 10:29:25;;;;;;;1.17;0.82;;;;;;;38.77;17.96;98320.88;5085823;28;20084;-79
2022/07/07 10:31:52;;;;;;;0.60;0.60;;;;;;;38.62;19.29;98317.53;5075766;28;20028;-78
2022/07/07 10:34:18;;;;;;;0.75;0.60;;;;;;;38.47;17.92;98323.59;5058039;28;20047;-79
2022/07/07 10:36:50;;;;;;;0.52;0.52;;;;;;;38.63;18.64;98316.22;5075648;28;20035;-79
2022/07/07 10:39:23;;;;;;;0.65;0.55;;;;;;;38.59;17.81;98319.38;5075325;28;20055;-79
2022/07/07 10:42:16;;;;;;;0.80;0.40;;;;;;;38.56;17.35;98314.69;5057455;28;20434;-79
2022/07/07 10:44:53;;;;;;;0.85;0.52;;;;;;;38.57;18.15;98312.59;5075393;28;20036;-79
2022/07/07 10:47:22;;;;;;;0.55;0.55;;;;;;;38.66;17.93;98307.34;5093988;28;20112;-78
2022/07/07 10:49:53;;;;;;;0.40;0.40;;;;;;;39.06;18.03;98305.81;5095614;28;20081;-79
2022/07/07 10:52:22;;;;;;;0.57;0.43;;;;;;;39.40;17.01;98306.34;5095588;28;20028;-78
2022/07/07 10:54:55;;;;;;;0.60;0.60;;;;;;;38.97;19.54;98302.50;5095241;28;20476;-79
2022/07/07 10:57:26;;;;;;;1.00;0.70;;;;;;;38.18;19.21;98301.25;5095429;28;20067;-79
2022/07/07 11:00:00;;;;;;;0.57;0.50;;;;;;;38.36;18.02;98297.81;5077671;28;20044;-79
2022/07/07 11:02:29;;;;;;;0.50;0.50;;;;;;;39.04;20.18;98299.03;5076883;28;20113;-79
2022/07/07 11:04:58;;;;;;;2.05;0.60;;;;;;;39.54;16.68;98295.81;5082064;28;20040;-79
2022/07/07 11:07:26;;;;;;;0.73;0.40;;;;;;;40.10;15.92;98293.97;5075062;28;20082;-79
2022/07/07 11:10:04;;;;;;;1.27;0.30;;;;;;;40.36;17.59;98294.19;5075038;28;20387;-79
2022/07/07 11:12:43;;;;;;;0.25;0.25;;;;;;;40.17;17.39;98286.84;5074911;28;20388;-79
2022/07/07 11:15:15;;;;;;;0.30;0.30;;;;;;;40.30;17.90;98292.69;5074996;28;20060;-79
2022/07/07 11:17:48;;;;;;;0.45;0.45;;;;;;;39.14;18.59;98278.06;5075147;28;20113;-79
2022/07/07 11:20:16;;;;;;;0.40;0.40;;;;;;;38.36;18.06;98289.22;5076174;28;20025;-78
2022/07/07 11:22:48;;;;;;;1.63;0.52;;;;;;;38.53;19.00;98281.28;5090193;28;20506;-78
2022/07/07 11:25:17;;;;;;;0.57;0.50;;;;;;;38.14;18.02;98277.78;5075111;28;20025;-79
2022/07/07 11:27:44;;;;;;;0.73;0.50;;;;;;;38.13;18.34;98279.09;5075066;28;20123;-79
2022/07/07 11:30:10;;;;;;;1.65;0.60;;;;;;;38.54;17.22;98273.47;5074501;28;20025;-79
2022/07/07 11:32:36;;;;;;;0.75;0.73;;;;;;;35.94;20.37;98266.22;5074667;28;20122;-79
2022/07/07 11:35:11;;;;;;;1.52;0.50;;;;;;;37.60;19.72;98262.28;5074562;28;20043;-78
2022/07/07 11:37:46;;;;;;;1.10;0.57;;;;;;;38.23;18.33;98260.28;5086477;28;20032;-79
2022/07/07 11:40:14;;;;;;;2.92;0.85;;;;;;;39.21;17.62;98262.41;5094612;28;20031;-79